Time;durP1;ratioP1;P1;durP2;ratioP2;P2;SDS_P1;SDS_P2;PMS_P1;PMS_P2;Temp;Humidity;BMP_temperature;BMP_pressure;BME280_temperature;BME280_humidity;BME280_pressure;Samples;Min_cycle;Max_cycle;Signal;HPM_P1;HPM_P2
2021/09/03 00:02:12;;;;;;;3.13;2.60;;;20.20;73.00;;;;;;5156157;27;20050;-53
2021/09/03 00:04:38;;;;;;;2.97;2.67;;;20.20;73.00;;;;;;5155623;27;20039;-52
2021/09/03 00:07:03;;;;;;;2.92;2.50;;;20.20;73.00;;;;;;5154880;27;20046;-56
2021/09/03 00:09:29;;;;;;;3.00;2.25;;;20.20;73.00;;;;;;5154533;27;20163;-51
2021/09/03 00:11:55;;;;;;;3.15;2.70;;;20.20;73.10;;;;;;5155746;27;20528;-54
2021/09/03 00:14:20;;;;;;;3.83;2.88;;;20.20;73.10;;;;;;5155279;27;20090;-54
2021/09/03 00:16:46;;;;;;;2.72;2.45;;;20.20;73.10;;;;;;5155204;27;20406;-56
2021/09/03 00:19:12;;;;;;;3.10;2.80;;;20.20;73.10;;;;;;5155056;27;20531;-57
2021/09/03 00:21:37;;;;;;;2.95;2.35;;;20.20;73.10;;;;;;5155341;27;20046;-52
2021/09/03 00:24:03;;;;;;;3.60;2.83;;;20.20;73.10;;;;;;5154938;27;20039;-51
2021/09/03 00:26:29;;;;;;;3.33;2.83;;;20.20;73.10;;;;;;5155210;27;20039;-59
2021/09/03 00:28:55;;;;;;;3.20;2.65;;;20.20;73.20;;;;;;5154527;27;20027;-54
2021/09/03 00:31:20;;;;;;;2.97;2.58;;;20.20;73.20;;;;;;5155147;27;20529;-56
2021/09/03 00:33:46;;;;;;;3.20;2.47;;;20.20;73.20;;;;;;5155213;27;20038;-52
2021/09/03 00:36:11;;;;;;;4.10;2.85;;;20.20;73.20;;;;;;5155082;27;20035;-51
2021/09/03 00:38:37;;;;;;;3.00;2.60;;;20.20;73.20;;;;;;5154551;27;20043;-51
2021/09/03 00:41:03;;;;;;;2.83;2.53;;;20.20;73.20;;;;;;5134341;27;20050;-59
2021/09/03 00:43:29;;;;;;;2.88;2.63;;;20.20;73.20;;;;;;5151324;27;20098;-51
2021/09/03 00:45:56;;;;;;;4.28;2.67;;;20.20;73.20;;;;;;5154473;27;20039;-59
2021/09/03 00:48:21;;;;;;;3.30;2.70;;;20.20;73.20;;;;;;5154777;27;20081;-56
2021/09/03 00:50:47;;;;;;;3.30;2.67;;;20.20;73.30;;;;;;5154275;27;20397;-49
2021/09/03 00:53:13;;;;;;;3.63;2.47;;;20.20;73.30;;;;;;5154614;27;20046;-53
2021/09/03 00:55:39;;;;;;;3.58;2.80;;;20.20;73.30;;;;;;5154537;27;20064;-56
2021/09/03 00:58:05;;;;;;;2.50;2.30;;;20.20;73.30;;;;;;5154593;27;20046;-53
2021/09/03 01:00:30;;;;;;;3.75;2.33;;;20.20;73.30;;;;;;5153823;27;20034;-56
2021/09/03 01:02:56;;;;;;;3.13;2.55;;;20.20;73.30;;;;;;5154128;27;20039;-48
2021/09/03 01:05:23;;;;;;;4.25;2.92;;;20.20;73.30;;;;;;5154238;27;20486;-45
2021/09/03 01:07:50;;;;;;;2.78;2.47;;;20.20;73.30;;;;;;5154336;27;20053;-58
2021/09/03 01:10:20;;;;;;;3.05;2.72;;;20.20;73.30;;;;;;5154236;27;20047;-54
2021/09/03 01:12:47;;;;;;;2.97;2.63;;;20.10;73.30;;;;;;5154063;27;20031;-56
2021/09/03 01:15:13;;;;;;;3.05;2.50;;;20.10;73.30;;;;;;5154152;27;20041;-55
2021/09/03 01:17:39;;;;;;;2.65;2.45;;;20.10;73.30;;;;;;5153555;27;20046;-55
2021/09/03 01:20:07;;;;;;;2.67;2.45;;;20.10;73.30;;;;;;5153733;27;20046;-46
2021/09/03 01:22:33;;;;;;;2.90;2.42;;;20.10;73.30;;;;;;5135137;27;20047;-58
2021/09/03 01:24:59;;;;;;;3.03;2.58;;;20.10;73.30;;;;;;5153822;27;20435;-55
2021/09/03 01:27:25;;;;;;;3.25;2.58;;;20.10;73.30;;;;;;5154009;27;20049;-50
2021/09/03 01:29:50;;;;;;;3.00;2.67;;;20.10;73.30;;;;;;5154088;27;20121;-49
2021/09/03 01:32:16;;;;;;;3.60;2.75;;;20.10;73.30;;;;;;5134028;27;20054;-53
2021/09/03 01:34:42;;;;;;;3.05;2.50;;;20.10;73.40;;;;;;5154012;27;20050;-54
2021/09/03 01:37:07;;;;;;;3.50;2.58;;;20.10;73.30;;;;;;5153916;27;20050;-55
2021/09/03 01:39:34;;;;;;;3.28;2.47;;;20.10;74.00;;;;;;5153779;27;20057;-58
2021/09/03 01:41:59;;;;;;;3.00;2.50;;;20.10;73.30;;;;;;5153995;27;20042;-51
2021/09/03 01:44:25;;;;;;;3.75;2.70;;;20.10;73.30;;;;;;5153636;27;20490;-52
2021/09/03 01:46:51;;;;;;;3.53;2.50;;;20.10;73.30;;;;;;5154313;27;20491;-57
2021/09/03 01:49:16;;;;;;;2.70;2.25;;;20.00;73.30;;;;;;5153315;27;20107;-55
2021/09/03 01:51:42;;;;;;;2.60;2.20;;;20.10;73.40;;;;;;5153839;27;20038;-51
2021/09/03 01:54:07;;;;;;;4.15;2.88;;;20.10;73.40;;;;;;5153550;27;20039;-59
2021/09/03 01:56:33;;;;;;;3.05;2.53;;;20.10;73.40;;;;;;5153713;27;20038;-59
2021/09/03 01:58:59;;;;;;;3.05;2.60;;;20.10;73.40;;;;;;5154022;27;20051;-59
2021/09/03 02:01:24;;;;;;;2.70;2.30;;;20.10;73.40;;;;;;5153730;27;20082;-56
2021/09/03 02:03:50;;;;;;;3.08;2.72;;;20.10;73.40;;;;;;5153078;27;20082;-55
2021/09/03 02:06:15;;;;;;;2.95;2.42;;;20.10;73.40;;;;;;5153161;27;20046;-54
2021/09/03 02:08:41;;;;;;;3.13;2.55;;;20.10;73.40;;;;;;5134724;27;20089;-55
2021/09/03 02:11:07;;;;;;;3.05;2.40;;;20.10;73.40;;;;;;5153761;27;20039;-55
2021/09/03 02:13:33;;;;;;;3.00;2.40;;;20.10;73.40;;;;;;5153804;27;20042;-55
2021/09/03 02:15:58;;;;;;;3.42;2.50;;;20.10;73.40;;;;;;5153145;27;20042;-46
2021/09/03 02:18:24;;;;;;;2.83;2.28;;;20.10;73.40;;;;;;5153677;27;20043;-57
2021/09/03 02:20:50;;;;;;;3.53;2.60;;;20.00;73.30;;;;;;5153089;27;20038;-49
2021/09/03 02:23:15;;;;;;;2.88;2.47;;;20.00;73.40;;;;;;5153217;27;20062;-47
2021/09/03 02:25:41;;;;;;;2.97;2.67;;;20.10;73.40;;;;;;5152817;27;20034;-51
2021/09/03 02:28:06;;;;;;;3.08;2.67;;;20.00;73.30;;;;;;5152991;27;20121;-54
2021/09/03 02:30:32;;;;;;;3.72;2.65;;;20.10;73.50;;;;;;5153201;27;20338;-54
2021/09/03 02:32:58;;;;;;;3.08;2.45;;;20.00;73.40;;;;;;5157290;27;20043;-55
2021/09/03 02:35:24;;;;;;;3.83;2.70;;;20.00;73.40;;;;;;5156946;27;20038;-52
2021/09/03 02:37:49;;;;;;;2.45;2.25;;;20.10;73.40;;;;;;5157203;27;20037;-53
2021/09/03 02:40:15;;;;;;;3.45;2.78;;;20.10;73.40;;;;;;5157346;27;20038;-51
2021/09/03 02:42:41;;;;;;;3.45;3.00;;;20.00;73.40;;;;;;5157108;27;20077;-56
2021/09/03 02:45:07;;;;;;;2.95;2.65;;;20.00;73.40;;;;;;5138250;27;20065;-53
2021/09/03 02:47:34;;;;;;;2.88;2.50;;;20.00;73.30;;;;;;5156651;27;20074;-58
2021/09/03 02:49:59;;;;;;;3.38;2.70;;;20.00;73.40;;;;;;5157007;27;20039;-51
2021/09/03 02:52:25;;;;;;;3.25;2.60;;;20.00;73.40;;;;;;5156563;27;20395;-54
2021/09/03 02:54:50;;;;;;;2.45;2.15;;;20.00;73.40;;;;;;5156998;27;20487;-55
2021/09/03 02:57:16;;;;;;;2.85;2.50;;;20.00;73.40;;;;;;5137751;27;20084;-56
2021/09/03 02:59:42;;;;;;;2.80;2.35;;;20.00;73.40;;;;;;5156902;27;20043;-53
2021/09/03 03:02:07;;;;;;;2.95;2.65;;;20.00;73.40;;;;;;5157244;27;20042;-50
2021/09/03 03:04:33;;;;;;;2.67;2.38;;;20.00;73.40;;;;;;5157127;27;20130;-57
2021/09/03 03:06:59;;;;;;;2.70;2.50;;;20.00;73.40;;;;;;5156616;27;20058;-52
2021/09/03 03:09:24;;;;;;;2.50;2.22;;;20.00;73.40;;;;;;5156151;27;20053;-48
2021/09/03 03:11:50;;;;;;;2.65;2.38;;;20.00;73.40;;;;;;5137658;27;20142;-50
2021/09/03 03:14:26;;;;;;;2.60;2.30;;;20.00;73.40;;;;;;5156403;27;20461;-46
2021/09/03 03:16:53;;;;;;;2.80;2.40;;;20.00;73.40;;;;;;5156482;27;20141;-57
2021/09/03 03:19:19;;;;;;;2.90;2.50;;;20.00;73.40;;;;;;5156262;27;20042;-53
2021/09/03 03:21:45;;;;;;;2.80;2.50;;;20.00;73.50;;;;;;5156446;27;20394;-54
2021/09/03 03:24:10;;;;;;;3.10;2.72;;;20.00;73.40;;;;;;5155690;27;20423;-54
2021/09/03 03:26:36;;;;;;;2.95;2.63;;;20.00;73.40;;;;;;5156287;27;20056;-53
2021/09/03 03:29:01;;;;;;;2.92;2.55;;;20.00;73.40;;;;;;5155635;27;20517;-49
2021/09/03 03:31:31;;;;;;;2.88;2.20;;;20.00;73.40;;;;;;5156184;27;20131;-58
2021/09/03 03:34:00;;;;;;;3.72;2.40;;;20.00;73.50;;;;;;5156070;27;20495;-57
2021/09/03 03:36:26;;;;;;;2.70;2.22;;;20.00;73.40;;;;;;5156066;27;20087;-56
2021/09/03 03:38:51;;;;;;;3.50;2.60;;;19.90;73.40;;;;;;5155672;27;20227;-53
2021/09/03 03:41:17;;;;;;;3.42;2.78;;;20.00;73.40;;;;;;5155607;27;20134;-49
2021/09/03 03:43:43;;;;;;;3.97;2.90;;;20.00;73.40;;;;;;5155430;27;20047;-57
2021/09/03 03:46:08;;;;;;;2.92;2.25;;;20.00;73.40;;;;;;5156149;27;20083;-50
2021/09/03 03:48:34;;;;;;;3.22;2.53;;;20.00;73.40;;;;;;5155933;27;20494;-52
2021/09/03 03:51:00;;;;;;;2.65;2.42;;;20.00;73.60;;;;;;5155757;27;20116;-56
2021/09/03 03:53:26;;;;;;;3.00;2.38;;;19.90;73.40;;;;;;5137032;27;20047;-57
2021/09/03 03:55:52;;;;;;;3.13;2.50;;;19.90;73.40;;;;;;5155464;27;20046;-52
2021/09/03 03:58:17;;;;;;;2.75;2.30;;;19.90;73.40;;;;;;5155704;27;20114;-52
2021/09/03 04:00:44;;;;;;;3.22;2.20;;;19.90;73.40;;;;;;5155401;27;20094;-51
2021/09/03 04:03:10;;;;;;;3.00;2.50;;;19.90;73.40;;;;;;5155820;27;20078;-56
2021/09/03 04:05:35;;;;;;;2.67;2.05;;;19.90;73.50;;;;;;5155803;27;20517;-50
2021/09/03 04:08:01;;;;;;;2.20;2.00;;;19.90;73.40;;;;;;5155675;27;20501;-51
2021/09/03 04:10:27;;;;;;;3.35;2.63;;;19.90;73.40;;;;;;5155303;27;20078;-58
2021/09/03 04:12:52;;;;;;;2.55;2.20;;;19.90;73.40;;;;;;5155526;27;20065;-52
2021/09/03 04:15:18;;;;;;;2.50;2.30;;;19.90;73.40;;;;;;5136668;27;20469;-49
2021/09/03 04:17:44;;;;;;;2.50;2.30;;;19.90;73.40;;;;;;5155244;27;20047;-53
2021/09/03 04:20:10;;;;;;;3.95;2.78;;;19.90;73.40;;;;;;5155581;27;20439;-50
2021/09/03 04:22:36;;;;;;;2.88;2.30;;;19.90;73.30;;;;;;5155260;27;20038;-43
2021/09/03 04:25:03;;;;;;;2.63;2.20;;;19.90;73.30;;;;;;5155327;27;20441;-58
2021/09/03 04:27:28;;;;;;;2.95;2.40;;;19.90;73.30;;;;;;5154890;27;20085;-58
2021/09/03 04:29:54;;;;;;;3.15;2.42;;;19.90;73.30;;;;;;5155248;27;20074;-59
2021/09/03 04:32:20;;;;;;;2.88;2.28;;;19.90;73.40;;;;;;5155352;27;20066;-58
2021/09/03 04:34:45;;;;;;;2.72;2.20;;;19.90;73.40;;;;;;5154571;27;20408;-58
2021/09/03 04:37:12;;;;;;;2.65;2.20;;;19.90;73.40;;;;;;5154505;27;20042;-58
2021/09/03 04:39:38;;;;;;;2.60;2.30;;;19.90;73.40;;;;;;5154156;27;20138;-49
2021/09/03 04:42:04;;;;;;;2.53;2.28;;;19.90;73.40;;;;;;5153476;27;20242;-58
2021/09/03 04:44:30;;;;;;;2.80;2.20;;;19.90;73.40;;;;;;5153641;27;20546;-58
2021/09/03 04:46:56;;;;;;;2.75;2.28;;;19.90;73.40;;;;;;5136205;27;20179;-58
2021/09/03 04:49:21;;;;;;;3.22;2.35;;;19.90;73.50;;;;;;5154648;27;20043;-58
2021/09/03 04:51:47;;;;;;;2.92;2.05;;;19.90;73.50;;;;;;5154638;27;20043;-59
2021/09/03 04:54:13;;;;;;;2.40;2.10;;;19.90;73.40;;;;;;5153743;27;20435;-58
2021/09/03 04:56:38;;;;;;;2.00;1.70;;;19.90;73.50;;;;;;5154582;27;20042;-55
2021/09/03 04:59:05;;;;;;;2.50;1.95;;;19.90;73.40;;;;;;5154109;27;20395;-59
2021/09/03 05:01:31;;;;;;;2.45;2.25;;;19.90;73.50;;;;;;5154160;27;20035;-56
2021/09/03 05:03:56;;;;;;;2.65;2.20;;;19.90;74.10;;;;;;5154377;27;20174;-59
2021/09/03 05:06:22;;;;;;;2.90;2.00;;;19.90;73.50;;;;;;5153781;27;20483;-58
2021/09/03 05:08:47;;;;;;;2.70;2.35;;;19.90;73.50;;;;;;5154191;27;20118;-49
2021/09/03 05:11:13;;;;;;;2.20;1.98;;;19.90;73.50;;;;;;5154232;27;20095;-54
2021/09/03 05:13:39;;;;;;;2.38;2.17;;;19.90;73.50;;;;;;5153758;27;20047;-52
2021/09/03 05:16:05;;;;;;;2.15;1.88;;;19.90;73.50;;;;;;5153401;27;20092;-57
2021/09/03 05:18:31;;;;;;;2.58;2.15;;;19.90;73.50;;;;;;5153883;27;20110;-50
2021/09/03 05:20:57;;;;;;;2.10;1.90;;;19.90;73.50;;;;;;5154285;27;20390;-59
2021/09/03 05:23:22;;;;;;;2.30;2.10;;;19.80;73.50;;;;;;5154060;27;20050;-56
2021/09/03 05:25:48;;;;;;;3.38;2.33;;;19.90;73.50;;;;;;5153765;27;20034;-58
2021/09/03 05:28:14;;;;;;;2.38;2.10;;;19.90;73.60;;;;;;5154022;27;20030;-59
2021/09/03 05:30:39;;;;;;;2.88;2.15;;;19.90;73.50;;;;;;5153468;27;20395;-58
2021/09/03 05:33:05;;;;;;;1.90;1.70;;;19.80;73.60;;;;;;5135118;27;20401;-59
2021/09/03 05:35:31;;;;;;;2.33;2.00;;;19.90;73.60;;;;;;5153864;27;20046;-54
2021/09/03 05:37:57;;;;;;;2.53;2.10;;;19.80;73.50;;;;;;5153611;27;20046;-58
2021/09/03 05:40:23;;;;;;;3.10;2.05;;;19.80;73.60;;;;;;5153889;27;20042;-59
2021/09/03 05:42:50;;;;;;;2.13;1.90;;;19.80;73.60;;;;;;5153576;27;20039;-62
2021/09/03 05:45:16;;;;;;;2.80;2.08;;;19.80;73.60;;;;;;5152855;27;20046;-53
2021/09/03 05:47:43;;;;;;;2.53;2.30;;;19.80;73.60;;;;;;5152963;27;20049;-59
2021/09/03 05:50:09;;;;;;;2.25;1.98;;;19.80;73.60;;;;;;5153611;27;20043;-59
2021/09/03 05:52:34;;;;;;;3.00;2.50;;;19.80;73.60;;;;;;5153776;27;20099;-57
2021/09/03 05:55:00;;;;;;;2.72;2.20;;;19.80;73.60;;;;;;5153641;27;20135;-59
2021/09/03 05:57:26;;;;;;;2.10;1.80;;;19.80;73.60;;;;;;5153184;27;20126;-55
2021/09/03 05:59:52;;;;;;;2.25;1.75;;;19.90;73.70;;;;;;5153533;27;20095;-59
2021/09/03 06:02:17;;;;;;;2.30;2.10;;;19.80;73.60;;;;;;5153024;27;20078;-44
2021/09/03 06:04:43;;;;;;;2.70;2.17;;;19.80;73.70;;;;;;5153668;27;20467;-58
2021/09/03 06:07:09;;;;;;;2.35;2.00;;;19.80;73.60;;;;;;5156229;27;20039;-58
2021/09/03 06:09:35;;;;;;;2.90;2.30;;;19.80;73.70;;;;;;5157684;27;20478;-55
2021/09/03 06:12:00;;;;;;;2.38;2.03;;;19.80;73.70;;;;;;5157778;27;20515;-53
2021/09/03 06:14:26;;;;;;;2.30;1.90;;;19.80;73.80;;;;;;5139138;27;20431;-56
2021/09/03 06:16:52;;;;;;;2.75;2.08;;;19.80;73.70;;;;;;5157130;27;20554;-56
2021/09/03 06:19:18;;;;;;;2.13;1.83;;;19.80;73.70;;;;;;5157344;27;20043;-58
2021/09/03 06:21:43;;;;;;;2.83;2.33;;;19.80;73.70;;;;;;5157330;27;20416;-50
2021/09/03 06:26:54;;;;;;;2.60;2.15;;;19.80;73.80;;;;;;5157424;27;20500;-49
2021/09/03 06:29:53;;;;;;;2.38;2.17;;;19.80;73.80;;;;;;5157026;27;20081;-49
2021/09/03 06:32:17;;;;;;;2.75;2.00;;;19.80;74.40;;;;;;5153170;27;20085;-55
2021/09/03 06:34:48;;;;;;;3.17;2.20;;;19.80;73.80;;;;;;5157702;27;20043;-58
2021/09/03 06:37:14;;;;;;;2.58;2.08;;;19.80;73.80;;;;;;5157181;27;20042;-46
2021/09/03 06:39:40;;;;;;;2.60;2.22;;;19.80;73.80;;;;;;5156730;27;20363;-53
2021/09/03 06:42:07;;;;;;;3.20;2.10;;;19.80;73.80;;;;;;5157125;27;20128;-47
2021/09/03 06:44:34;;;;;;;2.78;2.10;;;19.80;73.80;;;;;;5156695;27;20038;-51
2021/09/03 06:47:00;;;;;;;2.22;2.00;;;19.80;73.80;;;;;;5157123;27;20023;-45
2021/09/03 06:49:26;;;;;;;2.25;2.00;;;19.80;73.80;;;;;;5137213;27;20129;-38
2021/09/03 06:51:52;;;;;;;3.42;2.20;;;19.80;73.80;;;;;;5157027;27;20176;-58
2021/09/03 06:54:18;;;;;;;2.80;2.00;;;19.80;73.80;;;;;;5157189;27;20504;-59
2021/09/03 06:56:43;;;;;;;2.83;1.98;;;19.80;73.80;;;;;;5157130;27;20083;-58
2021/09/03 06:59:10;;;;;;;2.90;1.98;;;19.80;73.80;;;;;;5138113;27;20046;-60
2021/09/03 07:01:35;;;;;;;2.33;1.80;;;19.80;73.80;;;;;;5156864;27;20368;-59
2021/09/03 07:04:01;;;;;;;2.67;1.95;;;19.80;73.80;;;;;;5156444;27;20530;-59
2021/09/03 07:06:27;;;;;;;2.83;1.80;;;19.70;73.80;;;;;;5156650;27;20074;-58
2021/09/03 07:08:53;;;;;;;3.13;2.40;;;19.80;73.80;;;;;;5156471;27;20046;-58
2021/09/03 07:11:19;;;;;;;2.67;2.08;;;19.80;73.90;;;;;;5156851;27;20070;-44
2021/09/03 07:13:44;;;;;;;2.63;2.08;;;19.80;73.80;;;;;;5156413;27;20039;-53
2021/09/03 07:16:10;;;;;;;2.55;2.35;;;19.80;73.80;;;;;;5156297;27;20058;-42
2021/09/03 07:18:36;;;;;;;3.50;2.15;;;19.80;73.90;;;;;;5156183;27;20224;-46
2021/09/03 07:21:02;;;;;;;2.20;1.90;;;19.80;73.90;;;;;;5137264;27;20047;-37
2021/09/03 07:23:27;;;;;;;2.58;2.10;;;19.80;73.80;;;;;;5156163;27;20039;-52
2021/09/03 07:25:53;;;;;;;2.85;2.25;;;19.80;74.50;;;;;;5155911;27;20042;-37
2021/09/03 07:28:19;;;;;;;2.38;1.83;;;19.80;73.80;;;;;;5156298;27;20038;-47
2021/09/03 07:30:44;;;;;;;2.15;1.95;;;19.70;73.80;;;;;;5156443;27;20076;-38
2021/09/03 07:33:10;;;;;;;2.30;1.98;;;19.80;73.80;;;;;;5156209;27;20046;-52
2021/09/03 07:35:36;;;;;;;3.08;2.00;;;19.80;73.80;;;;;;5149056;27;20046;-41
2021/09/03 07:38:02;;;;;;;2.55;2.00;;;19.80;73.80;;;;;;5134938;27;20039;-58
2021/09/03 07:40:28;;;;;;;2.30;1.80;;;19.80;73.80;;;;;;5145148;27;20034;-42
2021/09/03 07:42:55;;;;;;;1.83;1.70;;;19.80;73.80;;;;;;5154760;27;20039;-52
2021/09/03 07:45:21;;;;;;;3.13;2.38;;;19.80;73.80;;;;;;5155180;27;20082;-56
2021/09/03 07:47:47;;;;;;;2.38;2.00;;;19.80;73.80;;;;;;5155354;27;20083;-54
2021/09/03 07:50:17;;;;;;;2.22;1.80;;;19.80;73.80;;;;;;5154998;27;20046;-54
2021/09/03 07:52:43;;;;;;;3.58;2.30;;;19.80;73.70;;;;;;5154719;27;20035;-42
2021/09/03 07:55:09;;;;;;;2.78;1.92;;;19.80;73.70;;;;;;5155081;27;20045;-45
2021/09/03 07:57:34;;;;;;;2.97;2.00;;;19.80;73.70;;;;;;5154426;27;20038;-49
2021/09/03 08:00:00;;;;;;;2.20;1.83;;;19.80;73.70;;;;;;5154597;27;20035;-39
2021/09/03 08:02:26;;;;;;;2.38;2.03;;;19.80;73.70;;;;;;5154534;27;20085;-50
2021/09/03 08:04:53;;;;;;;2.70;2.25;;;19.80;73.60;;;;;;5154642;27;20050;-37
2021/09/03 08:07:19;;;;;;;2.78;2.10;;;19.80;73.60;;;;;;5142983;27;20189;-36
2021/09/03 08:09:44;;;;;;;2.08;1.88;;;19.80;73.60;;;;;;5133711;27;20566;-37
2021/09/03 08:12:11;;;;;;;3.10;2.15;;;19.80;73.60;;;;;;5133649;27;20407;-42
2021/09/03 08:14:36;;;;;;;2.70;1.90;;;19.80;73.60;;;;;;5133855;27;20150;-34
2021/09/03 08:17:03;;;;;;;2.38;1.83;;;19.80;73.50;;;;;;5150518;27;20138;-40
2021/09/03 08:19:29;;;;;;;2.08;1.85;;;19.80;73.50;;;;;;5149054;27;20465;-45
2021/09/03 08:21:55;;;;;;;2.10;1.90;;;19.90;74.20;;;;;;5141416;27;20035;-42
2021/09/03 08:24:21;;;;;;;2.85;1.70;;;19.80;73.50;;;;;;5140047;27;20127;-42
2021/09/03 08:26:47;;;;;;;2.55;1.90;;;19.80;73.80;;;;;;5146666;27;20360;-36
2021/09/03 08:29:12;;;;;;;2.75;2.33;;;19.80;73.50;;;;;;5153338;27;20057;-47
2021/09/03 08:31:38;;;;;;;2.17;1.80;;;19.80;73.40;;;;;;5152725;27;20049;-46
2021/09/03 08:34:05;;;;;;;2.00;1.80;;;19.80;73.40;;;;;;5153028;27;20054;-42
2021/09/03 08:36:32;;;;;;;2.50;1.83;;;19.80;73.40;;;;;;5153985;27;20058;-42
2021/09/03 08:38:57;;;;;;;2.50;1.90;;;19.80;73.40;;;;;;5153123;27;20578;-39
2021/09/03 08:41:24;;;;;;;2.13;1.90;;;19.80;73.40;;;;;;5154234;27;20046;-36
2021/09/03 08:43:54;;;;;;;2.40;1.92;;;19.80;73.30;;;;;;5154473;27;20043;-47
2021/09/03 08:46:21;;;;;;;2.88;1.90;;;19.80;73.30;;;;;;5151238;27;20389;-52
2021/09/03 08:48:47;;;;;;;2.53;1.75;;;19.80;73.30;;;;;;5131180;27;20084;-44
2021/09/03 08:51:12;;;;;;;1.95;1.60;;;19.80;73.30;;;;;;5152483;27;20508;-55
2021/09/03 08:53:38;;;;;;;3.35;2.10;;;19.90;73.40;;;;;;5144435;27;20072;-39
2021/09/03 08:56:04;;;;;;;1.98;1.60;;;19.90;73.30;;;;;;5127924;27;20047;-43
2021/09/03 08:58:30;;;;;;;3.60;2.40;;;19.90;73.30;;;;;;5143958;27;20477;-44
2021/09/03 09:01:03;;;;;;;1.98;1.77;;;19.90;73.30;;;;;;5152703;27;20113;-37
2021/09/03 09:03:34;;;;;;;2.47;2.03;;;19.90;73.30;;;;;;5152682;27;20054;-46
2021/09/03 09:06:00;;;;;;;2.33;1.85;;;19.90;73.30;;;;;;5152750;27;20042;-57
2021/09/03 09:08:28;;;;;;;2.58;1.90;;;19.90;73.30;;;;;;5151186;27;20048;-54
2021/09/03 09:11:03;;;;;;;2.28;1.90;;;19.90;73.30;;;;;;5152786;27;20284;-51
2021/09/03 09:13:32;;;;;;;2.55;1.83;;;19.90;73.30;;;;;;5153197;27;20166;-51
2021/09/03 09:16:16;;;;;;;1.92;1.63;;;19.90;73.30;;;;;;5152443;27;20111;-50
2021/09/03 09:18:43;;;;;;;2.42;1.70;;;19.90;73.20;;;;;;5152203;27;20598;-54
2021/09/03 09:21:21;;;;;;;2.50;1.88;;;19.90;73.30;;;;;;5140866;27;20043;-54
2021/09/03 09:23:51;;;;;;;3.20;2.05;;;19.90;73.20;;;;;;5133070;27;20092;-40
2021/09/03 09:26:19;;;;;;;1.92;1.70;;;19.90;73.20;;;;;;5131810;27;20064;-53
2021/09/03 09:28:45;;;;;;;2.55;1.80;;;19.90;73.20;;;;;;5127540;27;20119;-55
2021/09/03 09:31:11;;;;;;;2.38;1.90;;;19.90;73.20;;;;;;5151384;27;20061;-52
2021/09/03 09:33:43;;;;;;;2.00;1.80;;;19.90;73.20;;;;;;5152846;27;20493;-52
2021/09/03 09:36:08;;;;;;;2.38;1.80;;;19.90;73.20;;;;;;5152564;27;20602;-58
2021/09/03 09:38:35;;;;;;;2.83;2.00;;;19.90;73.10;;;;;;5152567;27;20047;-55
2021/09/03 09:41:09;;;;;;;2.65;1.75;;;19.90;73.10;;;;;;5152334;27;20044;-49
2021/09/03 09:43:38;;;;;;;2.58;1.88;;;19.90;73.10;;;;;;5152066;27;20509;-45
2021/09/03 09:46:07;;;;;;;2.25;1.80;;;19.90;73.10;;;;;;5153078;27;20059;-52
2021/09/03 09:48:48;;;;;;;2.30;2.10;;;19.90;73.10;;;;;;5152560;27;20130;-37
2021/09/03 09:51:23;;;;;;;2.25;1.80;;;19.90;73.10;;;;;;5151597;27;20490;-41
2021/09/03 09:54:05;;;;;;;2.13;1.73;;;19.90;73.10;;;;;;5152294;27;20423;-52
2021/09/03 09:56:36;;;;;;;2.63;2.15;;;19.90;73.10;;;;;;5132911;27;20050;-53
2021/09/03 09:59:04;;;;;;;2.50;1.92;;;19.90;73.70;;;;;;5152026;27;20094;-55
2021/09/03 10:01:33;;;;;;;2.60;1.88;;;19.90;73.10;;;;;;5152633;27;20082;-52
2021/09/03 10:04:04;;;;;;;2.72;1.98;;;19.90;73.10;;;;;;5151441;27;20054;-53
2021/09/03 10:06:31;;;;;;;3.13;1.90;;;19.90;73.00;;;;;;5133470;27;20046;-54
2021/09/03 10:08:58;;;;;;;2.28;1.88;;;19.90;73.00;;;;;;5133500;27;20046;-57
2021/09/03 10:11:25;;;;;;;2.25;1.73;;;19.90;73.00;;;;;;5151314;27;20486;-52
2021/09/03 10:13:53;;;;;;;2.50;1.90;;;19.90;73.00;;;;;;5151698;27;20142;-52
2021/09/03 10:16:20;;;;;;;3.35;1.98;;;19.90;73.00;;;;;;5152016;27;20054;-48
2021/09/03 10:18:53;;;;;;;2.97;2.00;;;19.90;73.00;;;;;;5150958;27;20088;-53
2021/09/03 10:21:22;;;;;;;2.10;1.70;;;19.90;73.00;;;;;;5152768;27;20532;-57
2021/09/03 10:24:18;;;;;;;2.25;1.80;;;19.90;73.00;;;;;;5133821;27;20137;-49
2021/09/03 10:26:47;;;;;;;2.35;2.10;;;19.90;72.90;;;;;;5151371;27;20129;-41
2021/09/03 10:29:22;;;;;;;2.25;1.73;;;19.90;72.90;;;;;;5151300;27;20138;-55
2021/09/03 10:32:06;;;;;;;1.80;1.70;;;19.90;72.90;;;;;;5152355;27;20106;-46
2021/09/03 10:34:42;;;;;;;2.65;2.10;;;19.90;72.90;;;;;;5151117;27;20057;-43
2021/09/03 10:37:13;;;;;;;1.88;1.67;;;19.90;72.90;;;;;;5152464;27;20043;-42
2021/09/03 10:39:53;;;;;;;2.65;2.00;;;20.00;73.00;;;;;;5146386;27;20042;-41
2021/09/03 10:42:37;;;;;;;2.90;2.05;;;19.90;72.90;;;;;;5150854;27;20126;-47
2021/09/03 10:45:04;;;;;;;2.33;1.90;;;20.00;72.90;;;;;;5151308;27;20474;-42
2021/09/03 10:47:33;;;;;;;2.20;1.88;;;20.00;73.00;;;;;;5152180;27;20051;-50
2021/09/03 10:50:15;;;;;;;2.53;2.10;;;20.00;72.90;;;;;;5132617;27;20519;-46
2021/09/03 10:55:52;;;;;;;2.83;2.00;;;20.00;72.90;;;;;;5155151;27;20042;-40
2021/09/03 10:58:36;;;;;;;3.22;2.13;;;20.00;72.90;;;;;;5156998;27;20073;-56
2021/09/03 11:01:14;;;;;;;2.38;2.15;;;20.00;72.90;;;;;;5155677;27;20490;-54
2021/09/03 11:03:56;;;;;;;2.22;2.03;;;20.00;72.90;;;;;;5155091;27;20111;-55
2021/09/03 11:06:25;;;;;;;2.95;2.05;;;20.00;72.90;;;;;;5128865;27;20381;-45
2021/09/03 11:08:55;;;;;;;2.38;1.83;;;20.00;72.80;;;;;;5142442;27;20047;-57
2021/09/03 11:11:24;;;;;;;2.30;2.10;;;20.00;72.90;;;;;;5133709;27;20050;-56
2021/09/03 11:13:58;;;;;;;2.25;1.80;;;20.00;72.80;;;;;;5144076;27;20371;-39
2021/09/03 11:16:56;;;;;;;3.20;2.28;;;20.00;72.80;;;;;;5134790;27;20097;-58
2021/09/03 11:19:47;;;;;;;2.40;2.00;;;20.00;72.80;;;;;;5140637;27;20053;-38
2021/09/03 11:22:19;;;;;;;3.15;2.17;;;20.00;72.80;;;;;;5153955;27;20134;-40
2021/09/03 11:24:53;;;;;;;3.67;2.40;;;20.00;72.80;;;;;;5154653;27;20042;-52
2021/09/03 11:27:22;;;;;;;2.63;2.30;;;20.00;72.80;;;;;;5136876;27;20035;-37
2021/09/03 11:29:55;;;;;;;2.40;1.92;;;20.00;72.80;;;;;;5153942;27;20045;-50
2021/09/03 11:32:31;;;;;;;3.22;2.40;;;20.00;72.80;;;;;;5153406;27;20118;-56
2021/09/03 11:35:06;;;;;;;3.10;1.98;;;20.00;72.70;;;;;;5155065;27;20051;-50
2021/09/03 11:37:37;;;;;;;2.97;2.42;;;20.00;72.70;;;;;;5153831;27;20675;-51
2021/09/03 11:40:05;;;;;;;2.10;1.90;;;20.00;72.70;;;;;;5136694;27;20131;-35
2021/09/03 11:42:32;;;;;;;2.08;1.88;;;20.00;72.70;;;;;;5154819;27;20042;-44
2021/09/03 11:45:02;;;;;;;2.55;2.08;;;19.90;72.70;;;;;;5153554;27;20046;-36
2021/09/03 11:47:37;;;;;;;2.40;2.20;;;20.00;72.70;;;;;;5153496;27;20117;-36
2021/09/03 11:50:13;;;;;;;2.40;1.95;;;20.00;72.70;;;;;;5153546;27;20046;-46
2021/09/03 11:52:40;;;;;;;2.47;2.13;;;20.00;72.70;;;;;;5152949;27;20047;-47
2021/09/03 11:55:13;;;;;;;2.25;2.00;;;20.00;72.70;;;;;;5154640;27;20467;-41
2021/09/03 11:58:00;;;;;;;2.83;2.17;;;20.00;72.60;;;;;;5154787;27;20038;-54
2021/09/03 12:00:33;;;;;;;2.45;2.03;;;20.00;72.60;;;;;;5154584;27;20142;-44
2021/09/03 12:03:02;;;;;;;2.47;2.03;;;20.10;72.70;;;;;;5152413;27;20041;-49
2021/09/03 12:05:28;;;;;;;2.72;2.28;;;20.10;72.70;;;;;;5134057;27;20081;-45
2021/09/03 12:08:01;;;;;;;2.20;2.00;;;20.10;72.70;;;;;;5136579;27;20086;-36
2021/09/03 12:10:51;;;;;;;2.03;1.80;;;20.10;72.60;;;;;;5153709;27;20122;-51
2021/09/03 12:13:23;;;;;;;2.70;2.38;;;20.10;72.60;;;;;;5151970;27;20047;-38
2021/09/03 12:16:00;;;;;;;2.45;1.90;;;20.10;72.60;;;;;;5153188;27;20456;-45
2021/09/03 12:18:43;;;;;;;2.42;1.98;;;20.10;72.60;;;;;;5154211;27;20453;-57
2021/09/03 12:21:18;;;;;;;3.72;2.30;;;20.10;72.50;;;;;;5153479;27;20130;-42
2021/09/03 12:23:54;;;;;;;2.75;2.20;;;20.10;72.50;;;;;;5153902;27;20379;-36
2021/09/03 12:26:25;;;;;;;2.60;1.95;;;20.10;72.50;;;;;;5131983;27;20043;-53
2021/09/03 12:28:54;;;;;;;3.70;2.55;;;20.10;72.50;;;;;;5136058;27;20080;-44
2021/09/03 12:31:25;;;;;;;3.33;2.22;;;20.10;72.50;;;;;;5152511;27;20046;-47
2021/09/03 12:33:57;;;;;;;2.67;2.38;;;20.10;72.50;;;;;;5153347;27;20039;-45
2021/09/03 12:36:26;;;;;;;2.92;2.38;;;20.10;72.50;;;;;;5153541;27;20414;-47
2021/09/03 12:38:57;;;;;;;2.65;2.15;;;20.10;72.50;;;;;;5154553;27;20046;-41
2021/09/03 12:41:29;;;;;;;13.38;7.05;;;20.10;72.50;;;;;;5135647;27;20054;-38
2021/09/03 12:44:31;;;;;;;13.57;6.60;;;20.10;72.00;;;;;;5154247;27;20069;-40
2021/09/03 12:46:59;;;;;;;13.73;7.20;;;20.10;71.70;;;;;;5049783;28;20053;-41
2021/09/03 12:49:26;;;;;;;14.48;6.07;;;20.10;71.70;;;;;;5050255;28;20185;-38
2021/09/03 12:52:01;;;;;;;16.85;6.18;;;20.10;71.50;;;;;;5049860;28;20052;-37
2021/09/03 12:54:28;;;;;;;8.15;5.78;;;20.10;71.40;;;;;;5049847;28;20444;-38
2021/09/03 12:56:54;;;;;;;9.75;5.57;;;20.10;71.50;;;;;;5048677;28;20041;-37